Time;durP1;ratioP1;P1;durP2;ratioP2;P2;SDS_P1;SDS_P2;PMS_P1;PMS_P2;Temp;Humidity;BMP_temperature;BMP_pressure;BME280_temperature;BME280_humidity;BME280_pressure;Samples;Min_cycle;Max_cycle;Signal;HPM_P1;HPM_P2
2022/12/26 00:01:12;;;;;;;4.30;3.90;;;13.90;99.90;;;;;;5066131;28;20720;-32
2022/12/26 00:03:42;;;;;;;4.93;4.00;;;13.90;99.90;;;;;;5086214;28;20292;-33
2022/12/26 00:06:21;;;;;;;4.40;4.00;;;13.90;99.90;;;;;;5084669;28;20209;-33
2022/12/26 00:08:48;;;;;;;6.00;4.17;;;13.90;99.90;;;;;;5085566;28;20211;-33
2022/12/26 00:11:19;;;;;;;4.10;3.70;;;13.90;99.90;;;;;;5081530;28;20215;-33
2022/12/26 00:13:49;;;;;;;5.67;4.33;;;13.90;99.90;;;;;;5064893;28;20457;-33
2022/12/26 00:16:19;;;;;;;4.93;4.00;;;13.90;99.90;;;;;;5063844;28;20191;-33
2022/12/26 00:18:52;;;;;;;4.53;3.80;;;13.90;99.90;;;;;;5065625;28;20716;-33
2022/12/26 00:21:20;;;;;;;4.47;3.47;;;13.90;99.90;;;;;;5062717;28;20259;-33
2022/12/26 00:23:55;;;;;;;4.57;3.97;;;13.80;99.90;;;;;;5065155;28;20591;-33
2022/12/26 00:26:25;;;;;;;4.10;3.70;;;13.80;99.90;;;;;;5064685;28;20205;-33
2022/12/26 00:28:56;;;;;;;3.80;3.50;;;13.80;99.90;;;;;;5053608;28;20311;-33
2022/12/26 00:31:27;;;;;;;3.77;3.37;;;13.80;99.90;;;;;;5048346;28;20319;-35
2022/12/26 00:33:57;;;;;;;3.97;3.40;;;13.70;99.90;;;;;;5085278;28;20202;-35
2022/12/26 00:36:30;;;;;;;3.87;3.57;;;13.70;99.90;;;;;;5084734;28;20676;-35
2022/12/26 00:38:59;;;;;;;3.50;3.20;;;13.70;99.90;;;;;;5085832;28;20207;-35
2022/12/26 00:41:29;;;;;;;3.70;3.17;;;13.70;99.90;;;;;;5080494;28;20236;-35
2022/12/26 00:43:59;;;;;;;4.30;3.30;;;13.70;99.90;;;;;;5065197;28;20717;-35
2022/12/26 00:46:31;;;;;;;3.50;3.20;;;13.70;99.90;;;;;;5063059;28;20219;-35
2022/12/26 00:49:03;;;;;;;5.80;3.40;;;13.70;99.90;;;;;;5075618;28;20220;-35
2022/12/26 00:51:30;;;;;;;4.20;3.53;;;13.70;99.90;;;;;;5064337;28;20656;-35
2022/12/26 00:53:57;;;;;;;4.00;3.70;;;13.70;99.90;;;;;;5064698;28;20223;-33
2022/12/26 00:56:26;;;;;;;4.03;3.67;;;13.70;99.90;;;;;;5063976;28;20204;-33
2022/12/26 00:58:53;;;;;;;4.23;3.80;;;13.70;99.90;;;;;;5064078;28;20268;-33
2022/12/26 01:01:21;;;;;;;3.53;3.23;;;13.60;99.90;;;;;;5064533;28;20206;-34
2022/12/26 01:03:50;;;;;;;4.13;3.83;;;13.70;99.90;;;;;;5082096;28;20225;-33
2022/12/26 01:06:17;;;;;;;3.93;3.60;;;13.60;99.90;;;;;;5083479;28;20210;-33
2022/12/26 01:08:47;;;;;;;4.13;3.70;;;13.60;99.90;;;;;;5077538;28;20214;-33
2022/12/26 01:14:07;;;;;;;3.93;3.53;;;13.50;99.90;;;;;;5064672;28;20253;-33
2022/12/26 01:16:40;;;;;;;4.20;3.80;;;13.50;99.90;;;;;;5068634;28;20191;-33
2022/12/26 01:19:08;;;;;;;4.10;3.33;;;13.50;99.90;;;;;;5084805;28;20199;-35
2022/12/26 01:21:37;;;;;;;3.40;3.10;;;13.50;99.90;;;;;;5084314;28;20202;-35
2022/12/26 01:24:05;;;;;;;4.20;3.33;;;13.50;99.90;;;;;;5046409;28;20274;-35
2022/12/26 01:26:32;;;;;;;4.13;3.73;;;13.50;99.90;;;;;;5077144;28;20207;-35
2022/12/26 01:29:02;;;;;;;4.80;4.30;;;13.40;99.90;;;;;;5084618;28;20199;-35
2022/12/26 01:31:31;;;;;;;5.57;5.00;;;13.40;99.90;;;;;;5080949;28;20265;-35
2022/12/26 01:34:03;;;;;;;6.50;5.47;;;13.40;99.90;;;;;;5084614;28;20573;-35
2022/12/26 01:36:30;;;;;;;7.43;6.20;;;13.40;99.90;;;;;;5084552;28;20339;-33
2022/12/26 01:38:57;;;;;;;8.20;6.83;;;13.40;99.90;;;;;;5083196;28;20293;-33
2022/12/26 01:41:31;;;;;;;9.33;6.77;;;13.30;99.90;;;;;;5080550;28;20199;-33
2022/12/26 01:44:00;;;;;;;9.17;7.50;;;13.30;99.90;;;;;;5064344;28;20252;-33
2022/12/26 01:46:41;;;;;;;8.67;7.20;;;13.30;99.90;;;;;;5062725;28;20199;-33
2022/12/26 01:49:36;;;;;;;10.33;8.07;;;13.30;99.90;;;;;;5084542;28;20227;-33
2022/12/26 01:52:10;;;;;;;8.70;7.57;;;13.30;99.90;;;;;;5082950;28;20226;-33
2022/12/26 01:54:44;;;;;;;9.47;7.53;;;13.30;99.90;;;;;;5083176;28;20215;-33
2022/12/26 01:57:28;;;;;;;8.70;7.30;;;13.20;99.90;;;;;;5084013;28;20222;-33
2022/12/26 02:00:00;;;;;;;8.60;7.43;;;13.30;99.90;;;;;;5044072;28;20200;-35
2022/12/26 02:02:29;;;;;;;7.40;6.37;;;13.20;99.90;;;;;;5060674;28;20211;-35
2022/12/26 02:07:45;;;;;;;6.13;5.23;;;13.20;99.90;;;;;;5058918;28;20235;-35
2022/12/26 02:10:22;;;;;;;6.17;5.40;;;13.20;99.90;;;;;;5067173;28;20207;-35
2022/12/26 02:12:50;;;;;;;5.93;4.90;;;13.20;99.90;;;;;;5066919;28;20277;-35
2022/12/26 02:15:17;;;;;;;6.27;5.67;;;13.20;99.90;;;;;;5061755;28;20223;-35
2022/12/26 02:17:51;;;;;;;5.73;5.13;;;13.20;99.90;;;;;;5049011;28;20208;-35
2022/12/26 02:20:23;;;;;;;5.40;4.90;;;13.20;99.90;;;;;;5068591;28;20716;-33
2022/12/26 02:23:15;;;;;;;4.40;4.00;;;13.10;99.90;;;;;;5067136;28;20686;-33
2022/12/26 02:26:16;;;;;;;4.37;3.97;;;13.10;99.90;;;;;;5065518;28;20852;-33
2022/12/26 02:29:05;;;;;;;3.90;3.50;;;13.10;99.90;;;;;;5063662;28;20230;-33
2022/12/26 02:32:09;;;;;;;3.67;3.33;;;13.10;99.90;;;;;;5052965;28;20310;-33
2022/12/26 02:34:55;;;;;;;3.10;2.80;;;13.10;99.90;;;;;;5087377;28;20252;-34
2022/12/26 02:37:33;;;;;;;3.53;2.60;;;13.00;99.90;;;;;;5085814;28;20194;-34
2022/12/26 02:40:19;;;;;;;4.10;3.00;;;13.00;99.90;;;;;;5075942;28;20239;-34
2022/12/26 02:43:29;;;;;;;2.90;2.60;;;13.00;99.90;;;;;;5066784;28;20299;-34
2022/12/26 02:49:27;;;;;;;2.57;2.37;;;12.90;99.90;;;;;;5066068;28;20235;-34
2022/12/26 03:13:10;;;;;;;1.60;1.50;;;12.80;99.90;;;;;;5050867;28;20215;-34
2022/12/26 03:18:37;;;;;;;1.40;1.30;;;12.70;99.90;;;;;;5066565;28;20192;-34
2022/12/26 03:21:33;;;;;;;1.40;1.30;;;12.70;99.90;;;;;;5064337;28;20294;-34
2022/12/26 03:24:00;;;;;;;1.67;1.50;;;12.70;99.90;;;;;;5066925;28;20674;-34
2022/12/26 03:26:39;;;;;;;1.60;1.23;;;12.70;99.90;;;;;;5081783;28;20319;-34
2022/12/26 03:32:03;;;;;;;1.97;1.77;;;12.70;99.90;;;;;;5073068;28;20255;-34
2022/12/26 03:34:30;;;;;;;1.80;1.70;;;12.60;99.90;;;;;;5058082;28;20205;-34
2022/12/26 03:37:25;;;;;;;2.30;2.10;;;12.60;99.90;;;;;;5046568;28;20197;-34
2022/12/26 04:20:12;;;;;;;2.60;2.40;;;12.50;99.90;;;;;;5045933;28;20239;-34
2022/12/26 04:46:22;;;;;;;2.93;1.90;;;12.50;99.90;;;;;;5080583;28;20206;-34
2022/12/26 04:51:37;;;;;;;3.60;1.90;;;12.60;99.90;;;;;;5063519;28;20722;-34
2022/12/26 04:54:10;;;;;;;2.70;1.97;;;12.50;99.90;;;;;;5064143;28;20269;-34
2022/12/26 04:56:37;;;;;;;1.77;1.67;;;12.50;99.90;;;;;;5062414;28;20316;-34
2022/12/26 04:59:04;;;;;;;2.80;1.83;;;12.60;99.90;;;;;;5064751;28;20195;-34
2022/12/26 05:10:00;;;;;;;2.43;1.90;;;12.60;99.90;;;;;;5083996;28;20233;-34
2022/12/26 05:12:27;;;;;;;2.00;1.60;;;12.60;99.90;;;;;;5083788;28;20237;-34
2022/12/26 05:15:02;;;;;;;1.40;1.30;;;12.60;99.90;;;;;;5083125;28;20199;-38
2022/12/26 05:29:02;;;;;;;1.70;1.60;;;12.60;99.90;;;;;;5064809;28;20196;-34
2022/12/26 05:31:30;;;;;;;2.47;1.40;;;12.60;99.90;;;;;;5083671;28;20709;-33
2022/12/26 05:34:09;;;;;;;2.00;1.40;;;12.50;99.90;;;;;;5083349;28;20195;-33
2022/12/26 05:36:47;;;;;;;2.83;1.57;;;12.50;99.90;;;;;;5061850;28;20253;-34
2022/12/26 05:39:16;;;;;;;2.53;1.47;;;12.50;99.90;;;;;;5067559;28;20570;-33
2022/12/26 05:41:44;;;;;;;1.40;1.10;;;12.50;99.90;;;;;;5048089;28;20200;-33
2022/12/26 05:44:13;;;;;;;1.40;1.30;;;12.50;99.90;;;;;;5049062;28;20207;-33
2022/12/26 05:46:43;;;;;;;2.30;1.40;;;12.50;99.90;;;;;;5085703;28;20222;-33
2022/12/26 05:49:10;;;;;;;1.77;1.00;;;12.50;99.90;;;;;;5087000;28;20227;-33
2022/12/26 05:51:37;;;;;;;1.70;1.50;;;12.50;99.90;;;;;;5068339;28;20287;-34
2022/12/26 05:54:07;;;;;;;1.33;1.13;;;12.60;99.90;;;;;;5067514;28;20234;-33
2022/12/26 05:56:36;;;;;;;2.07;1.30;;;12.60;99.90;;;;;;5067157;28;20211;-34
2022/12/26 05:59:03;;;;;;;2.20;0.93;;;12.60;99.90;;;;;;5062316;28;20236;-34
2022/12/26 06:01:33;;;;;;;1.50;0.97;;;12.60;99.90;;;;;;5049991;28;20239;-33
2022/12/26 06:04:00;;;;;;;0.93;0.90;;;12.60;99.90;;;;;;5051614;28;20227;-33
2022/12/26 06:06:28;;;;;;;0.80;0.80;;;12.60;99.90;;;;;;5065614;28;20227;-33
2022/12/26 06:08:57;;;;;;;2.90;1.30;;;12.60;99.90;;;;;;5053414;28;20227;-34
2022/12/26 06:11:32;;;;;;;0.80;0.80;;;12.60;99.90;;;;;;5066160;28;20307;-34
2022/12/26 06:14:00;;;;;;;0.80;0.73;;;12.60;99.90;;;;;;5066111;28;20302;-34
2022/12/26 06:16:28;;;;;;;1.20;1.07;;;12.60;99.90;;;;;;5061591;28;20258;-34
2022/12/26 06:18:57;;;;;;;2.50;0.90;;;12.60;99.90;;;;;;5062998;28;20231;-33
2022/12/26 06:21:25;;;;;;;1.13;0.80;;;12.60;99.90;;;;;;5067260;28;20292;-34
2022/12/26 06:23:54;;;;;;;1.30;1.20;;;12.60;99.90;;;;;;5063988;28;20298;-33
2022/12/26 06:26:26;;;;;;;0.70;0.70;;;12.60;99.90;;;;;;5067240;28;20745;-33
2022/12/26 06:28:53;;;;;;;0.83;0.80;;;12.60;99.90;;;;;;5062100;28;20228;-33
2022/12/26 06:31:23;;;;;;;1.47;0.90;;;12.60;99.90;;;;;;5069277;28;20615;-34
2022/12/26 06:33:54;;;;;;;1.13;0.73;;;12.60;99.90;;;;;;5067516;28;20253;-34
2022/12/26 06:36:24;;;;;;;1.67;1.07;;;12.60;99.90;;;;;;5067384;28;20583;-34
2022/12/26 06:38:52;;;;;;;1.60;0.60;;;12.70;99.90;;;;;;5068103;28;20211;-34
2022/12/26 06:41:20;;;;;;;3.07;1.17;;;12.70;99.90;;;;;;5079843;28;20370;-33
2022/12/26 06:43:48;;;;;;;3.57;0.83;;;12.70;99.90;;;;;;5079264;28;20206;-34
2022/12/26 06:46:18;;;;;;;1.37;0.90;;;12.70;99.90;;;;;;5058298;28;20879;-34
2022/12/26 06:48:49;;;;;;;1.80;0.80;;;12.70;99.90;;;;;;5051334;28;20240;-33
2022/12/26 06:51:19;;;;;;;2.40;1.00;;;12.70;99.90;;;;;;5054421;28;20235;-33
2022/12/26 06:53:47;;;;;;;0.90;0.70;;;12.70;99.90;;;;;;5056652;28;20207;-34
2022/12/26 06:56:23;;;;;;;1.83;0.90;;;12.70;99.90;;;;;;5055656;28;20207;-34
2022/12/26 06:58:59;;;;;;;0.70;0.57;;;12.70;99.90;;;;;;5063032;28;20204;-34
2022/12/26 07:01:30;;;;;;;2.63;0.73;;;12.70;99.90;;;;;;5054072;28;20207;-34
2022/12/26 07:04:05;;;;;;;1.03;0.60;;;12.70;99.90;;;;;;5056765;28;20203;-33
2022/12/26 07:06:35;;;;;;;1.70;0.70;;;12.70;99.90;;;;;;5048332;28;20196;-34
2022/12/26 07:09:09;;;;;;;3.13;0.70;;;12.70;99.90;;;;;;5065955;28;20203;-34
2022/12/26 07:11:41;;;;;;;0.70;0.60;;;12.70;99.90;;;;;;5065063;28;20223;-34
2022/12/26 07:14:11;;;;;;;2.30;0.60;;;12.70;99.90;;;;;;5064115;28;20203;-34
2022/12/26 07:16:42;;;;;;;1.50;0.80;;;12.70;99.90;;;;;;5056793;28;20207;-34
2022/12/26 07:19:11;;;;;;;1.20;0.70;;;12.70;99.90;;;;;;5050086;28;20200;-33
2022/12/26 07:21:39;;;;;;;2.13;0.93;;;12.60;99.90;;;;;;5063648;28;20208;-34
2022/12/26 07:24:17;;;;;;;2.73;0.60;;;12.70;99.90;;;;;;5045936;28;20212;-34
2022/12/26 07:26:45;;;;;;;2.23;0.73;;;12.70;99.90;;;;;;5060893;28;20681;-34
2022/12/26 07:29:13;;;;;;;1.57;0.90;;;12.60;99.90;;;;;;5056266;28;20236;-34
2022/12/26 07:31:41;;;;;;;1.10;0.63;;;12.60;99.90;;;;;;5051520;28;20233;-34
2022/12/26 07:34:08;;;;;;;1.63;0.47;;;12.60;99.90;;;;;;5059286;28;20211;-34
2022/12/26 07:36:38;;;;;;;2.63;0.67;;;12.60;99.90;;;;;;5057503;28;20265;-34
2022/12/26 07:39:08;;;;;;;1.73;0.80;;;12.60;99.90;;;;;;5058342;28;20192;-34
2022/12/26 07:44:21;;;;;;;1.30;0.70;;;12.70;99.90;;;;;;5055927;28;20204;-34
2022/12/26 07:46:50;;;;;;;3.67;0.90;;;12.60;99.90;;;;;;5056916;28;20257;-34
2022/12/26 07:49:19;;;;;;;2.40;0.93;;;12.60;99.90;;;;;;5057770;28;20678;-34
2022/12/26 07:51:47;;;;;;;1.50;0.77;;;12.70;99.90;;;;;;5063436;28;20235;-34
2022/12/26 07:54:17;;;;;;;1.83;0.77;;;12.70;99.90;;;;;;5042053;28;20212;-34
2022/12/26 07:56:44;;;;;;;3.10;0.90;;;12.70;99.90;;;;;;5060866;28;20705;-34
2022/12/26 07:59:18;;;;;;;3.13;1.20;;;12.60;99.90;;;;;;5059180;28;20206;-34
2022/12/26 08:01:48;;;;;;;3.47;1.17;;;12.60;99.90;;;;;;5052835;28;20195;-34
2022/12/26 08:04:17;;;;;;;3.03;0.83;;;12.60;99.90;;;;;;5056906;28;20292;-34
2022/12/26 08:06:46;;;;;;;4.57;1.07;;;12.50;99.90;;;;;;5045376;28;20224;-34
2022/12/26 08:09:17;;;;;;;6.80;1.17;;;12.50;99.90;;;;;;5056434;28;20210;-34
2022/12/26 08:11:49;;;;;;;3.37;1.00;;;12.50;99.90;;;;;;5045023;28;20894;-34
2022/12/26 08:14:18;;;;;;;4.80;1.20;;;12.50;99.90;;;;;;5068388;28;20587;-34
2022/12/26 08:16:45;;;;;;;4.50;1.00;;;12.50;99.90;;;;;;5062131;28;21317;-34
2022/12/26 08:19:19;;;;;;;6.40;0.90;;;12.40;99.90;;;;;;5058707;28;20207;-34
2022/12/26 08:21:48;;;;;;;1.30;0.80;;;12.40;99.90;;;;;;5052479;28;20561;-34
2022/12/26 08:24:18;;;;;;;5.03;0.90;;;12.40;99.90;;;;;;5049053;28;20207;-34
2022/12/26 08:26:51;;;;;;;1.70;1.00;;;12.40;99.90;;;;;;5060409;28;20241;-34
2022/12/26 08:29:23;;;;;;;5.33;1.37;;;12.40;99.90;;;;;;5061602;28;20670;-34
2022/12/26 08:31:52;;;;;;;3.97;1.00;;;12.40;99.90;;;;;;5061430;28;20322;-34
2022/12/26 08:34:24;;;;;;;5.57;1.27;;;12.30;99.90;;;;;;5059577;28;20218;-34
2022/12/26 08:36:51;;;;;;;4.00;1.10;;;12.30;99.90;;;;;;5060554;28;20257;-34
2022/12/26 08:39:21;;;;;;;2.97;0.93;;;12.30;99.90;;;;;;5061492;28;20196;-34
2022/12/26 08:41:48;;;;;;;3.17;0.87;;;12.30;99.90;;;;;;5060960;28;20298;-35
2022/12/26 08:44:16;;;;;;;3.43;0.70;;;12.30;99.90;;;;;;5057684;28;20283;-34
2022/12/26 08:46:54;;;;;;;3.80;1.20;;;12.30;99.90;;;;;;5052379;28;20654;-34
2022/12/26 08:49:21;;;;;;;2.63;0.83;;;12.30;99.90;;;;;;5064059;28;20719;-34
2022/12/26 08:51:48;;;;;;;4.53;1.40;;;12.30;99.90;;;;;;5062810;28;20236;-34
2022/12/26 08:54:15;;;;;;;1.63;0.80;;;12.30;99.90;;;;;;5059152;28;20245;-34
2022/12/26 08:56:42;;;;;;;4.83;0.90;;;12.30;99.90;;;;;;5069139;28;20273;-34
2022/12/26 08:59:13;;;;;;;3.47;1.10;;;12.30;99.90;;;;;;5061887;28;20220;-34
2022/12/26 09:01:40;;;;;;;2.23;1.07;;;12.30;99.90;;;;;;5049630;28;20207;-34
2022/12/26 09:04:08;;;;;;;6.00;1.20;;;12.30;99.90;;;;;;5048723;28;20219;-34
2022/12/26 09:06:37;;;;;;;3.90;1.20;;;12.30;99.90;;;;;;5045934;28;20219;-34
2022/12/26 09:09:07;;;;;;;2.77;1.30;;;12.30;99.90;;;;;;5064670;28;20211;-34
2022/12/26 09:11:34;;;;;;;3.50;1.17;;;12.30;99.90;;;;;;5060389;28;20294;-34
2022/12/26 09:14:04;;;;;;;5.27;1.50;;;12.40;99.90;;;;;;5070919;28;20309;-34
2022/12/26 09:16:37;;;;;;;3.80;1.00;;;12.40;99.90;;;;;;5051255;28;20227;-34
2022/12/26 09:19:16;;;;;;;5.90;1.13;;;12.40;99.90;;;;;;5062779;28;20370;-34
2022/12/26 09:21:44;;;;;;;6.00;1.17;;;12.40;99.90;;;;;;5064075;28;20235;-34
2022/12/26 09:24:16;;;;;;;4.67;1.03;;;12.40;99.90;;;;;;5067688;28;20226;-34
2022/12/26 09:26:44;;;;;;;3.17;1.10;;;12.40;99.90;;;;;;5051033;28;20330;-34
2022/12/26 09:29:14;;;;;;;5.80;1.43;;;12.40;99.90;;;;;;5062546;28;20214;-34
2022/12/26 09:31:41;;;;;;;7.77;1.50;;;12.50;99.90;;;;;;5050402;28;20596;-34
2022/12/26 09:34:08;;;;;;;6.20;1.17;;;12.50;99.90;;;;;;5068961;28;20356;-40
2022/12/26 09:36:38;;;;;;;4.70;1.13;;;12.50;99.90;;;;;;5064097;28;20254;-34
2022/12/26 09:39:12;;;;;;;5.07;1.10;;;12.50;99.90;;;;;;5067726;28;20631;-34
2022/12/26 09:41:45;;;;;;;4.13;1.10;;;12.50;99.90;;;;;;5065954;28;20208;-34
2022/12/26 09:44:36;;;;;;;2.93;1.10;;;12.60;99.90;;;;;;5066440;28;20195;-34
2022/12/26 09:47:19;;;;;;;3.13;0.87;;;12.60;99.90;;;;;;5067673;28;20196;-34
2022/12/26 09:50:12;;;;;;;4.40;1.17;;;12.70;99.90;;;;;;5059287;28;20245;-34
2022/12/26 09:52:49;;;;;;;5.17;1.33;;;12.70;99.90;;;;;;5060821;28;20241;-34
2022/12/26 09:55:47;;;;;;;3.63;0.90;;;12.70;99.90;;;;;;5065270;28;20702;-34
2022/12/26 09:58:29;;;;;;;5.30;1.20;;;12.70;99.90;;;;;;5053875;28;20782;-34
2022/12/26 10:01:11;;;;;;;3.17;1.10;;;12.70;99.90;;;;;;5054882;28;20200;-34
2022/12/26 10:04:07;;;;;;;5.70;1.30;;;12.70;99.90;;;;;;5047677;28;20214;-34
2022/12/26 10:06:42;;;;;;;6.40;1.10;;;12.70;99.90;;;;;;5048565;28;20235;-34
2022/12/26 10:09:19;;;;;;;3.33;0.97;;;12.70;99.90;;;;;;5057619;28;20276;-34
2022/12/26 10:11:55;;;;;;;4.47;0.90;;;12.70;99.90;;;;;;5065497;28;20208;-34
2022/12/26 10:14:31;;;;;;;3.07;1.03;;;12.70;99.90;;;;;;5062974;28;20564;-34
2022/12/26 10:17:25;;;;;;;2.93;1.20;;;12.70;99.90;;;;;;5061287;28;20689;-34
2022/12/26 10:19:59;;;;;;;4.40;1.07;;;12.70;99.90;;;;;;5062057;28;20549;-34
2022/12/26 10:22:38;;;;;;;2.60;1.00;;;12.70;99.90;;;;;;5065525;28;20290;-35
2022/12/26 10:25:18;;;;;;;2.00;0.83;;;12.70;99.90;;;;;;5060422;28;20215;-35
2022/12/26 10:27:48;;;;;;;3.90;0.83;;;12.70;99.90;;;;;;5061362;28;20203;-35
2022/12/26 10:30:33;;;;;;;3.30;0.90;;;12.70;99.90;;;;;;5066557;28;20269;-35
2022/12/26 10:33:11;;;;;;;3.87;1.10;;;12.80;99.90;;;;;;5063347;28;20219;-34
2022/12/26 10:35:43;;;;;;;3.40;0.90;;;12.80;99.90;;;;;;5067671;28;20318;-34
2022/12/26 10:38:26;;;;;;;2.83;1.00;;;12.80;99.90;;;;;;5063944;28;20226;-34
2022/12/26 10:40:59;;;;;;;2.70;1.00;;;12.80;99.90;;;;;;5065147;28;20626;-34
2022/12/26 10:43:32;;;;;;;3.87;0.90;;;12.80;99.90;;;;;;5075634;28;20268;-36
2022/12/26 10:46:02;;;;;;;2.50;1.00;;;12.80;99.90;;;;;;5065257;28;20214;-36
2022/12/26 10:48:29;;;;;;;4.30;1.57;;;12.80;99.90;;;;;;5063865;28;20204;-34
2022/12/26 10:50:57;;;;;;;2.70;1.10;;;12.80;99.90;;;;;;5066673;28;20245;-34
2022/12/26 10:53:24;;;;;;;3.67;0.93;;;12.80;99.90;;;;;;5063879;28;20223;-34
2022/12/26 10:55:55;;;;;;;2.63;1.10;;;12.80;99.90;;;;;;5064639;28;20242;-34
2022/12/26 10:58:33;;;;;;;4.80;1.03;;;12.80;99.90;;;;;;5051949;28;20201;-34
2022/12/26 11:01:33;;;;;;;2.23;0.97;;;12.80;99.90;;;;;;5064111;28;20249;-34
2022/12/26 11:04:04;;;;;;;2.53;1.03;;;12.80;99.90;;;;;;5066736;28;20273;-34
2022/12/26 11:06:42;;;;;;;2.00;0.90;;;12.90;99.90;;;;;;5066449;28;20731;-34
2022/12/26 11:09:37;;;;;;;2.80;1.00;;;12.80;99.90;;;;;;5060173;28;20757;-34
2022/12/26 11:12:20;;;;;;;3.70;0.90;;;12.90;99.90;;;;;;5063481;28;20281;-34
2022/12/26 11:15:00;;;;;;;5.63;1.40;;;12.90;99.90;;;;;;5052671;28;20246;-34
2022/12/26 11:17:32;;;;;;;4.43;1.00;;;12.90;99.90;;;;;;5063092;28;20191;-34
2022/12/26 11:20:22;;;;;;;3.07;0.90;;;12.90;99.90;;;;;;5054458;28;20208;-33
2022/12/26 11:22:50;;;;;;;4.63;1.10;;;12.90;99.90;;;;;;5048244;28;20294;-33
2022/12/26 11:25:23;;;;;;;4.33;1.33;;;12.90;99.90;;;;;;5063685;28;20310;-34
2022/12/26 11:27:56;;;;;;;6.10;1.80;;;12.90;99.90;;;;;;5064190;28;20265;-34
2022/12/26 11:30:32;;;;;;;5.63;1.60;;;12.90;99.90;;;;;;5086696;28;20290;-33
2022/12/26 11:33:24;;;;;;;5.07;1.60;;;12.90;99.90;;;;;;5057711;28;20227;-34
2022/12/26 11:36:15;;;;;;;3.47;1.20;;;12.90;99.90;;;;;;5065887;28;20253;-33
2022/12/26 11:38:45;;;;;;;3.60;0.87;;;12.70;99.90;;;;;;5058229;28;20224;-34
2022/12/26 11:41:31;;;;;;;3.70;0.90;;;12.70;99.90;;;;;;5047613;28;20209;-36
2022/12/26 11:44:11;;;;;;;3.87;1.33;;;12.60;99.90;;;;;;5066919;28;20246;-33
2022/12/26 11:46:53;;;;;;;4.07;1.10;;;12.60;99.90;;;;;;5058438;28;20256;-34
2022/12/26 11:49:29;;;;;;;5.73;1.63;;;12.50;99.90;;;;;;5052444;28;20234;-34
2022/12/26 11:51:59;;;;;;;3.53;1.20;;;12.40;99.90;;;;;;5055652;28;20219;-34
2022/12/26 11:54:28;;;;;;;5.30;2.70;;;12.30;99.90;;;;;;5076539;28;20223;-34
2022/12/26 11:57:05;;;;;;;4.27;1.27;;;12.20;99.90;;;;;;5059531;28;20591;-34
2022/12/26 11:59:32;;;;;;;3.80;1.40;;;12.10;99.90;;;;;;5067505;28;20657;-33
2022/12/26 12:02:31;;;;;;;2.63;1.47;;;12.10;99.90;;;;;;5061655;28;20290;-34
2022/12/26 12:05:14;;;;;;;3.93;1.37;;;12.00;99.90;;;;;;5056269;28;20216;-33
2022/12/26 12:07:56;;;;;;;4.27;1.27;;;11.90;99.90;;;;;;5051581;28;20598;-34
2022/12/26 12:10:47;;;;;;;7.10;1.70;;;11.90;99.90;;;;;;5058813;28;20708;-34
2022/12/26 12:13:48;;;;;;;5.83;1.10;;;11.90;99.90;;;;;;5049032;28;20587;-34
2022/12/26 12:16:36;;;;;;;5.37;1.70;;;11.90;99.90;;;;;;5043229;28;20208;-35
2022/12/26 12:19:12;;;;;;;8.40;1.70;;;11.90;99.90;;;;;;5061633;28;20226;-36
2022/12/26 12:21:45;;;;;;;3.97;1.30;;;11.90;99.90;;;;;;5063657;28;21189;-33
2022/12/26 12:24:15;;;;;;;3.97;1.70;;;11.90;99.90;;;;;;5063648;28;20423;-36
2022/12/26 12:27:08;;;;;;;8.17;1.70;;;11.80;99.90;;;;;;5056989;28;21222;-34
2022/12/26 12:29:57;;;;;;;10.17;2.03;;;11.80;99.90;;;;;;5058483;28;20302;-34
2022/12/26 12:32:27;;;;;;;5.83;2.20;;;11.80;99.90;;;;;;5054432;28;20215;-34
2022/12/26 12:35:13;;;;;;;5.53;1.90;;;11.80;99.90;;;;;;5060085;28;20749;-34
2022/12/26 12:37:49;;;;;;;6.83;1.60;;;11.80;99.90;;;;;;5062173;28;20199;-34
2022/12/26 12:40:49;;;;;;;5.43;1.57;;;11.70;99.90;;;;;;5065338;28;20327;-34
2022/12/26 12:43:34;;;;;;;3.50;1.47;;;11.70;99.90;;;;;;5045199;28;20208;-34
2022/12/26 12:46:34;;;;;;;5.77;1.87;;;11.70;99.90;;;;;;5057820;28;20212;-35
2022/12/26 12:49:10;;;;;;;6.57;2.10;;;11.70;99.90;;;;;;5027406;28;20303;-34
2022/12/26 12:52:02;;;;;;;4.93;1.90;;;11.60;99.90;;;;;;5049353;28;20233;-34
2022/12/26 12:54:56;;;;;;;8.97;2.13;;;11.60;99.90;;;;;;5055125;28;20351;-35
2022/12/26 12:57:47;;;;;;;6.23;1.53;;;11.50;99.90;;;;;;5065786;28;20317;-34
2022/12/26 13:00:18;;;;;;;9.27;2.00;;;11.40;99.90;;;;;;5065860;28;20300;-34
2022/12/26 13:02:53;;;;;;;7.17;1.93;;;11.30;99.90;;;;;;5062920;28;20322;-34
2022/12/26 13:05:41;;;;;;;5.50;1.77;;;11.30;99.90;;;;;;5063879;28;20334;-34
2022/12/26 13:08:19;;;;;;;6.87;1.57;;;11.30;99.90;;;;;;5050761;28;20203;-34
2022/12/26 13:10:56;;;;;;;8.83;1.90;;;11.20;99.90;;;;;;5045039;28;20299;-34
2022/12/26 13:13:40;;;;;;;6.90;1.40;;;11.20;99.90;;;;;;5059692;28;20214;-34
2022/12/26 13:16:17;;;;;;;6.23;1.37;;;11.20;99.90;;;;;;5053082;28;20225;-34
2022/12/26 13:19:12;;;;;;;8.63;2.07;;;11.10;99.90;;;;;;5050332;28;20318;-34
2022/12/26 13:21:39;;;;;;;4.40;1.40;;;11.20;99.90;;;;;;5064381;28;20200;-34
2022/12/26 13:24:27;;;;;;;8.37;1.70;;;11.10;99.90;;;;;;5061571;28;20247;-34
2022/12/26 13:27:04;;;;;;;5.20;1.80;;;11.20;99.90;;;;;;5062170;28;20638;-34
2022/12/26 13:29:44;;;;;;;7.07;1.83;;;11.10;99.90;;;;;;5064158;28;20209;-34
2022/12/26 13:32:23;;;;;;;8.00;2.27;;;11.10;99.90;;;;;;5047801;28;20211;-34
2022/12/26 13:34:56;;;;;;;11.47;2.40;;;11.10;99.90;;;;;;5061374;28;20623;-34
2022/12/26 13:37:38;;;;;;;6.37;1.77;;;11.10;99.90;;;;;;5048259;28;20204;-34
2022/12/26 13:40:18;;;;;;;6.27;1.87;;;11.10;99.90;;;;;;5058317;28;20650;-34
2022/12/26 13:45:49;;;;;;;7.07;1.70;;;11.00;99.90;;;;;;5065048;28;20207;-34
2022/12/26 13:48:16;;;;;;;9.23;1.97;;;10.90;99.90;;;;;;5062596;28;20195;-34
2022/12/26 13:50:58;;;;;;;6.80;1.50;;;10.90;99.90;;;;;;5064352;28;20231;-34
2022/12/26 13:53:36;;;;;;;8.60;1.77;;;10.80;99.90;;;;;;5052043;28;20314;-34
2022/12/26 13:56:29;;;;;;;9.67;1.77;;;10.70;99.90;;;;;;5064553;28;20203;-34
2022/12/26 13:59:31;;;;;;;5.37;1.40;;;10.70;99.90;;;;;;5059383;28;20204;-34
2022/12/26 14:02:19;;;;;;;11.20;2.07;;;10.60;99.90;;;;;;5077357;28;20238;-36
2022/12/26 14:05:37;;;;;;;6.57;1.80;;;10.60;99.90;;;;;;5050016;28;20466;-34
2022/12/26 14:08:12;;;;;;;6.40;1.50;;;10.50;99.90;;;;;;5031184;28;20262;-33
2022/12/26 14:10:47;;;;;;;8.77;1.77;;;10.40;99.90;;;;;;5059120;28;20202;-33
2022/12/26 14:13:37;;;;;;;9.30;1.53;;;10.40;99.90;;;;;;5054482;28;20756;-33
2022/12/26 14:16:12;;;;;;;7.27;1.80;;;10.40;99.90;;;;;;5065870;28;20261;-33
2022/12/26 14:19:21;;;;;;;6.57;1.53;;;10.30;99.90;;;;;;5066499;28;20203;-33
2022/12/26 14:21:54;;;;;;;6.17;2.23;;;10.30;99.90;;;;;;5050691;28;20199;-34
2022/12/26 14:24:48;;;;;;;6.60;1.50;;;10.30;99.90;;;;;;5060961;28;20330;-33
2022/12/26 14:27:30;;;;;;;4.87;1.47;;;10.30;99.90;;;;;;5053201;28;20274;-33
2022/12/26 14:30:29;;;;;;;5.13;1.40;;;10.20;99.90;;;;;;5058103;28;20674;-33
2022/12/26 14:33:20;;;;;;;8.07;1.77;;;10.10;99.90;;;;;;5053625;28;20261;-34
2022/12/26 14:36:05;;;;;;;4.53;1.50;;;10.10;99.90;;;;;;5066437;28;20229;-33
2022/12/26 14:38:53;;;;;;;9.37;1.70;;;10.10;99.90;;;;;;5067180;28;20992;-33
2022/12/26 14:44:17;;;;;;;5.67;1.77;;;10.10;99.90;;;;;;5064214;28;20256;-34
2022/12/26 14:46:46;;;;;;;4.83;1.60;;;10.10;99.90;;;;;;5066638;28;20260;-33
2022/12/26 14:49:21;;;;;;;7.40;2.10;;;10.00;99.90;;;;;;5062937;28;20207;-33
2022/12/26 14:51:49;;;;;;;8.10;2.17;;;10.00;99.90;;;;;;5047633;28;20231;-33
2022/12/26 14:54:35;;;;;;;7.53;1.63;;;10.00;99.90;;;;;;5049989;28;20316;-33
2022/12/26 14:57:36;;;;;;;8.00;1.90;;;10.00;99.90;;;;;;5051988;28;20224;-33
2022/12/26 15:00:28;;;;;;;9.07;1.93;;;9.90;99.90;;;;;;5064543;28;20203;-34
2022/12/26 15:02:58;;;;;;;7.40;1.63;;;9.90;99.90;;;;;;5051848;28;20223;-33
2022/12/26 15:05:30;;;;;;;4.97;1.47;;;9.90;99.90;;;;;;5058761;28;20203;-33
2022/12/26 15:08:19;;;;;;;6.70;1.93;;;9.80;99.90;;;;;;5067017;28;20199;-33
2022/12/26 15:10:52;;;;;;;6.03;1.50;;;9.80;99.90;;;;;;5071347;28;20620;-33
2022/12/26 15:13:41;;;;;;;8.43;1.87;;;9.70;99.90;;;;;;5060007;28;20234;-34
2022/12/26 15:16:28;;;;;;;6.27;2.43;;;9.60;99.90;;;;;;5056818;28;20204;-33
2022/12/26 15:19:26;;;;;;;9.97;1.70;;;9.60;99.90;;;;;;5045453;28;20200;-33
2022/12/26 15:22:26;;;;;;;5.10;1.50;;;9.50;99.90;;;;;;5070878;28;21555;-33
2022/12/26 15:25:18;;;;;;;5.07;1.50;;;9.30;99.90;;;;;;5060046;28;20674;-33
2022/12/26 15:28:12;;;;;;;6.27;1.90;;;9.20;99.90;;;;;;5054705;28;20218;-33
2022/12/26 15:30:44;;;;;;;8.43;1.50;;;9.10;99.90;;;;;;5056683;28;20222;-33
2022/12/26 15:33:25;;;;;;;6.97;1.53;;;9.10;99.90;;;;;;5056872;28;20580;-33
2022/12/26 15:36:33;;;;;;;4.30;1.50;;;9.00;99.90;;;;;;5059556;28;20261;-33
2022/12/26 15:39:26;;;;;;;4.70;1.30;;;8.90;99.90;;;;;;5054284;28;20265;-33
2022/12/26 15:42:14;;;;;;;4.70;1.50;;;8.80;99.90;;;;;;5074442;28;20284;-33
2022/12/26 15:45:06;;;;;;;4.50;1.33;;;8.70;99.90;;;;;;5059343;28;20215;-33